sensor_id;sensor_type;location;lat;lon;timestamp;temperature;humidity
1956;DHT22;978;48.314;11.562;2024-03-22T00:02:24;20.60;71.60
1956;DHT22;978;48.314;11.562;2024-03-22T00:04:53;20.70;71.60
1956;DHT22;978;48.314;11.562;2024-03-22T00:07:20;20.60;71.50
1956;DHT22;978;48.314;11.562;2024-03-22T00:09:48;20.70;71.50
1956;DHT22;978;48.314;11.562;2024-03-22T00:12:17;20.70;71.50
1956;DHT22;978;48.314;11.562;2024-03-22T00:14:47;20.70;71.50
1956;DHT22;978;48.314;11.562;2024-03-22T00:17:15;20.70;71.50
1956;DHT22;978;48.314;11.562;2024-03-22T00:19:43;20.70;71.50
1956;DHT22;978;48.314;11.562;2024-03-22T00:22:09;20.60;71.40
1956;DHT22;978;48.314;11.562;2024-03-22T00:24:40;20.70;71.40
1956;DHT22;978;48.314;11.562;2024-03-22T00:27:07;20.70;71.30
1956;DHT22;978;48.314;11.562;2024-03-22T00:29:41;20.70;71.30
1956;DHT22;978;48.314;11.562;2024-03-22T00:32:07;20.60;71.30
1956;DHT22;978;48.314;11.562;2024-03-22T00:34:35;20.70;71.30
1956;DHT22;978;48.314;11.562;2024-03-22T00:37:02;20.70;71.30
1956;DHT22;978;48.314;11.562;2024-03-22T00:39:31;20.70;71.30
1956;DHT22;978;48.314;11.562;2024-03-22T00:41:58;20.70;71.20
1956;DHT22;978;48.314;11.562;2024-03-22T00:44:26;20.70;71.20
1956;DHT22;978;48.314;11.562;2024-03-22T00:46:55;20.70;71.20
1956;DHT22;978;48.314;11.562;2024-03-22T00:49:22;20.70;71.20
1956;DHT22;978;48.314;11.562;2024-03-22T00:51:49;20.70;71.10
1956;DHT22;978;48.314;11.562;2024-03-22T00:54:16;20.60;70.50
1956;DHT22;978;48.314;11.562;2024-03-22T00:56:45;20.70;71.10
1956;DHT22;978;48.314;11.562;2024-03-22T00:59:15;20.70;71.10
1956;DHT22;978;48.314;11.562;2024-03-22T01:01:43;20.70;71.10
1956;DHT22;978;48.314;11.562;2024-03-22T01:04:15;20.70;70.50
1956;DHT22;978;48.314;11.562;2024-03-22T01:06:41;20.70;71.60
1956;DHT22;978;48.314;11.562;2024-03-22T01:09:11;20.70;71.00
1956;DHT22;978;48.314;11.562;2024-03-22T01:11:38;20.70;71.00
1956;DHT22;978;48.314;11.562;2024-03-22T01:14:05;20.70;70.40
1956;DHT22;978;48.314;11.562;2024-03-22T01:16:31;20.60;70.40
1956;DHT22;978;48.314;11.562;2024-03-22T01:19:01;20.60;70.90
1956;DHT22;978;48.314;11.562;2024-03-22T01:21:30;20.70;70.90
1956;DHT22;978;48.314;11.562;2024-03-22T01:23:59;20.70;70.80
1956;DHT22;978;48.314;11.562;2024-03-22T01:26:25;20.70;70.80
1956;DHT22;978;48.314;11.562;2024-03-22T01:28:54;20.70;70.90
1956;DHT22;978;48.314;11.562;2024-03-22T01:31:22;20.70;71.40
1956;DHT22;978;48.314;11.562;2024-03-22T01:33:50;20.60;70.80
1956;DHT22;978;48.314;11.562;2024-03-22T01:36:18;20.70;70.80
1956;DHT22;978;48.314;11.562;2024-03-22T01:38:47;20.70;70.80
1956;DHT22;978;48.314;11.562;2024-03-22T01:41:14;20.70;70.20
1956;DHT22;978;48.314;11.562;2024-03-22T01:43:41;20.70;70.80
1956;DHT22;978;48.314;11.562;2024-03-22T01:46:08;20.70;70.20
1956;DHT22;978;48.314;11.562;2024-03-22T01:48:37;20.70;70.70
1956;DHT22;978;48.314;11.562;2024-03-22T01:51:04;20.70;70.60
1956;DHT22;978;48.314;11.562;2024-03-22T01:53:33;20.70;70.70
1956;DHT22;978;48.314;11.562;2024-03-22T01:56:03;20.70;70.60
1956;DHT22;978;48.314;11.562;2024-03-22T01:58:32;20.70;70.60
1956;DHT22;978;48.314;11.562;2024-03-22T02:00:59;20.70;70.60
1956;DHT22;978;48.314;11.562;2024-03-22T02:03:29;20.70;70.60
1956;DHT22;978;48.314;11.562;2024-03-22T02:05:56;20.70;70.50
1956;DHT22;978;48.314;11.562;2024-03-22T02:08:24;20.70;70.50
1956;DHT22;978;48.314;11.562;2024-03-22T02:10:51;20.70;70.50
1956;DHT22;978;48.314;11.562;2024-03-22T02:13:22;20.70;70.50
1956;DHT22;978;48.314;11.562;2024-03-22T02:15:48;20.70;69.90
1956;DHT22;978;48.314;11.562;2024-03-22T02:18:19;20.70;70.50
1956;DHT22;978;48.314;11.562;2024-03-22T02:20:46;20.70;70.40
1956;DHT22;978;48.314;11.562;2024-03-22T02:23:14;20.70;70.40
1956;DHT22;978;48.314;11.562;2024-03-22T02:25:43;20.70;70.40
1956;DHT22;978;48.314;11.562;2024-03-22T02:30:38;20.70;69.80
1956;DHT22;978;48.314;11.562;2024-03-22T02:33:05;20.70;70.30
1956;DHT22;978;48.314;11.562;2024-03-22T02:35:32;20.70;70.30
1956;DHT22;978;48.314;11.562;2024-03-22T02:38:00;20.70;70.30
1956;DHT22;978;48.314;11.562;2024-03-22T02:40:27;20.70;70.30
1956;DHT22;978;48.314;11.562;2024-03-22T02:42:57;20.70;70.30
1956;DHT22;978;48.314;11.562;2024-03-22T02:45:23;20.70;70.20
1956;DHT22;978;48.314;11.562;2024-03-22T02:47:51;20.70;70.20
1956;DHT22;978;48.314;11.562;2024-03-22T02:50:18;20.70;70.20
1956;DHT22;978;48.314;11.562;2024-03-22T02:52:45;20.70;70.20
1956;DHT22;978;48.314;11.562;2024-03-22T02:55:12;20.70;70.20
1956;DHT22;978;48.314;11.562;2024-03-22T02:57:40;19.80;69.60
1956;DHT22;978;48.314;11.562;2024-03-22T03:00:08;20.70;70.20
1956;DHT22;978;48.314;11.562;2024-03-22T03:02:36;20.70;70.10
1956;DHT22;978;48.314;11.562;2024-03-22T03:05:04;20.70;70.10
1956;DHT22;978;48.314;11.562;2024-03-22T03:07:33;20.70;70.10
1956;DHT22;978;48.314;11.562;2024-03-22T03:10:03;20.70;70.00
1956;DHT22;978;48.314;11.562;2024-03-22T03:12:30;20.70;70.00
1956;DHT22;978;48.314;11.562;2024-03-22T03:14:58;20.70;70.00
1956;DHT22;978;48.314;11.562;2024-03-22T03:17:27;20.70;70.00
1956;DHT22;978;48.314;11.562;2024-03-22T03:19:55;20.70;69.90
1956;DHT22;978;48.314;11.562;2024-03-22T03:22:22;20.70;69.90
1956;DHT22;978;48.314;11.562;2024-03-22T03:24:54;20.70;69.90
1956;DHT22;978;48.314;11.562;2024-03-22T03:27:21;20.70;69.90
1956;DHT22;978;48.314;11.562;2024-03-22T03:29:48;20.70;69.90
1956;DHT22;978;48.314;11.562;2024-03-22T03:32:15;20.70;69.90
1956;DHT22;978;48.314;11.562;2024-03-22T03:34:45;20.70;69.90
1956;DHT22;978;48.314;11.562;2024-03-22T03:37:11;20.70;69.80
1956;DHT22;978;48.314;11.562;2024-03-22T03:39:42;20.70;69.80
1956;DHT22;978;48.314;11.562;2024-03-22T03:42:08;20.70;69.80
1956;DHT22;978;48.314;11.562;2024-03-22T03:44:36;20.70;69.80
1956;DHT22;978;48.314;11.562;2024-03-22T03:47:04;20.70;69.70
1956;DHT22;978;48.314;11.562;2024-03-22T03:49:32;20.70;69.70
1956;DHT22;978;48.314;11.562;2024-03-22T03:52:01;20.70;69.70
1956;DHT22;978;48.314;11.562;2024-03-22T03:54:28;20.70;69.70
1956;DHT22;978;48.314;11.562;2024-03-22T03:56:55;20.70;69.70
1956;DHT22;978;48.314;11.562;2024-03-22T03:59:23;20.70;69.60
1956;DHT22;978;48.314;11.562;2024-03-22T04:01:51;20.70;69.60
1956;DHT22;978;48.314;11.562;2024-03-22T04:04:19;20.70;69.60
1956;DHT22;978;48.314;11.562;2024-03-22T04:06:46;20.70;69.60
1956;DHT22;978;48.314;11.562;2024-03-22T04:09:19;20.70;69.50
1956;DHT22;978;48.314;11.562;2024-03-22T04:11:46;20.70;69.50
1956;DHT22;978;48.314;11.562;2024-03-22T04:14:17;20.70;69.50
1956;DHT22;978;48.314;11.562;2024-03-22T04:16:44;20.70;69.50
1956;DHT22;978;48.314;11.562;2024-03-22T04:19:11;20.70;69.40
1956;DHT22;978;48.314;11.562;2024-03-22T04:21:39;20.70;69.40
1956;DHT22;978;48.314;11.562;2024-03-22T04:24:05;20.70;68.90
1956;DHT22;978;48.314;11.562;2024-03-22T04:26:34;20.70;69.40
1956;DHT22;978;48.314;11.562;2024-03-22T04:29:01;20.70;69.40
1956;DHT22;978;48.314;11.562;2024-03-22T04:31:29;20.70;69.40
1956;DHT22;978;48.314;11.562;2024-03-22T04:33:57;20.70;69.40
1956;DHT22;978;48.314;11.562;2024-03-22T04:36:24;20.70;69.30
1956;DHT22;978;48.314;11.562;2024-03-22T04:38:51;20.70;69.30
1956;DHT22;978;48.314;11.562;2024-03-22T04:41:21;20.70;69.30
1956;DHT22;978;48.314;11.562;2024-03-22T04:43:51;20.70;69.30
1956;DHT22;978;48.314;11.562;2024-03-22T04:46:19;20.70;69.30
1956;DHT22;978;48.314;11.562;2024-03-22T04:48:46;20.70;69.20
1956;DHT22;978;48.314;11.562;2024-03-22T04:51:14;20.70;69.20
1956;DHT22;978;48.314;11.562;2024-03-22T04:53:42;20.70;69.20
1956;DHT22;978;48.314;11.562;2024-03-22T04:56:09;20.70;69.10
1956;DHT22;978;48.314;11.562;2024-03-22T04:58:37;20.70;69.10
1956;DHT22;978;48.314;11.562;2024-03-22T05:01:05;20.70;69.10
1956;DHT22;978;48.314;11.562;2024-03-22T05:03:34;20.70;69.10
1956;DHT22;978;48.314;11.562;2024-03-22T05:06:01;20.70;69.10
1956;DHT22;978;48.314;11.562;2024-03-22T05:08:30;20.70;69.10
1956;DHT22;978;48.314;11.562;2024-03-22T05:10:57;20.70;69.20
1956;DHT22;978;48.314;11.562;2024-03-22T05:13:25;20.70;69.10
1956;DHT22;978;48.314;11.562;2024-03-22T05:15:53;20.70;69.10
1956;DHT22;978;48.314;11.562;2024-03-22T05:18:23;20.70;69.10
1956;DHT22;978;48.314;11.562;2024-03-22T05:20:50;20.70;69.10
1956;DHT22;978;48.314;11.562;2024-03-22T05:23:19;20.70;69.10
1956;DHT22;978;48.314;11.562;2024-03-22T05:25:46;20.70;69.10
1956;DHT22;978;48.314;11.562;2024-03-22T05:28:14;20.70;69.10
1956;DHT22;978;48.314;11.562;2024-03-22T05:30:41;20.70;69.10
1956;DHT22;978;48.314;11.562;2024-03-22T05:33:10;20.70;68.60
1956;DHT22;978;48.314;11.562;2024-03-22T05:35:38;20.70;69.20
1956;DHT22;978;48.314;11.562;2024-03-22T05:38:07;20.70;68.60
1956;DHT22;978;48.314;11.562;2024-03-22T05:40:36;20.70;69.20
1956;DHT22;978;48.314;11.562;2024-03-22T05:43:05;20.70;68.60
1956;DHT22;978;48.314;11.562;2024-03-22T05:45:33;20.70;69.20
1956;DHT22;978;48.314;11.562;2024-03-22T05:48:01;20.70;69.20
1956;DHT22;978;48.314;11.562;2024-03-22T05:50:27;20.70;69.20
1956;DHT22;978;48.314;11.562;2024-03-22T05:52:56;20.70;69.20
1956;DHT22;978;48.314;11.562;2024-03-22T05:55:22;20.70;69.30
1956;DHT22;978;48.314;11.562;2024-03-22T05:57:49;20.70;69.30
1956;DHT22;978;48.314;11.562;2024-03-22T06:00:15;20.70;69.30
1956;DHT22;978;48.314;11.562;2024-03-22T06:02:43;20.70;69.30
1956;DHT22;978;48.314;11.562;2024-03-22T06:05:09;20.70;69.30
1956;DHT22;978;48.314;11.562;2024-03-22T06:07:36;20.70;69.30
1956;DHT22;978;48.314;11.562;2024-03-22T06:10:09;20.70;69.30
1956;DHT22;978;48.314;11.562;2024-03-22T06:12:36;20.70;69.30
1956;DHT22;978;48.314;11.562;2024-03-22T06:15:02;20.70;69.30
1956;DHT22;978;48.314;11.562;2024-03-22T06:17:31;20.70;69.30
1956;DHT22;978;48.314;11.562;2024-03-22T06:19:58;20.70;69.20
1956;DHT22;978;48.314;11.562;2024-03-22T06:22:25;20.70;69.20
1956;DHT22;978;48.314;11.562;2024-03-22T06:24:51;20.70;69.20
1956;DHT22;978;48.314;11.562;2024-03-22T06:27:19;20.70;69.20
1956;DHT22;978;48.314;11.562;2024-03-22T06:29:45;20.70;68.70
1956;DHT22;978;48.314;11.562;2024-03-22T06:32:12;20.70;69.20
1956;DHT22;978;48.314;11.562;2024-03-22T06:34:38;20.70;68.70
1956;DHT22;978;48.314;11.562;2024-03-22T06:37:05;20.70;69.20
1956;DHT22;978;48.314;11.562;2024-03-22T06:39:31;20.70;69.20
1956;DHT22;978;48.314;11.562;2024-03-22T06:41:58;20.70;69.20
1956;DHT22;978;48.314;11.562;2024-03-22T06:44:25;20.70;69.20
1956;DHT22;978;48.314;11.562;2024-03-22T06:46:52;20.70;69.20
1956;DHT22;978;48.314;11.562;2024-03-22T06:49:19;20.70;69.20
1956;DHT22;978;48.314;11.562;2024-03-22T06:51:46;20.70;69.20
1956;DHT22;978;48.314;11.562;2024-03-22T06:54:11;20.70;69.20
1956;DHT22;978;48.314;11.562;2024-03-22T06:56:38;20.70;69.20
1956;DHT22;978;48.314;11.562;2024-03-22T06:59:04;20.70;69.30
1956;DHT22;978;48.314;11.562;2024-03-22T07:01:32;20.70;69.20
1956;DHT22;978;48.314;11.562;2024-03-22T07:03:58;20.70;69.20
1956;DHT22;978;48.314;11.562;2024-03-22T07:06:25;20.70;69.20
1956;DHT22;978;48.314;11.562;2024-03-22T07:08:51;20.70;69.20
1956;DHT22;978;48.314;11.562;2024-03-22T07:11:18;20.70;69.30
1956;DHT22;978;48.314;11.562;2024-03-22T07:13:44;20.70;69.20
1956;DHT22;978;48.314;11.562;2024-03-22T07:16:11;20.70;69.20
1956;DHT22;978;48.314;11.562;2024-03-22T07:18:38;20.70;69.20
1956;DHT22;978;48.314;11.562;2024-03-22T07:21:05;20.70;69.30
1956;DHT22;978;48.314;11.562;2024-03-22T07:23:31;20.70;69.20
1956;DHT22;978;48.314;11.562;2024-03-22T07:25:58;20.70;69.20
1956;DHT22;978;48.314;11.562;2024-03-22T07:28:25;20.70;69.20
1956;DHT22;978;48.314;11.562;2024-03-22T07:30:52;20.70;69.20
1956;DHT22;978;48.314;11.562;2024-03-22T07:33:18;20.70;68.70
1956;DHT22;978;48.314;11.562;2024-03-22T07:35:46;20.70;69.20
1956;DHT22;978;48.314;11.562;2024-03-22T07:38:12;20.70;69.10
1956;DHT22;978;48.314;11.562;2024-03-22T07:40:39;20.70;69.10
1956;DHT22;978;48.314;11.562;2024-03-22T07:43:04;20.70;69.10
1956;DHT22;978;48.314;11.562;2024-03-22T07:45:33;20.70;69.10
1956;DHT22;978;48.314;11.562;2024-03-22T07:47:59;20.70;69.70
1956;DHT22;978;48.314;11.562;2024-03-22T07:50:27;20.70;69.10
1956;DHT22;978;48.314;11.562;2024-03-22T07:52:54;20.70;69.00
1956;DHT22;978;48.314;11.562;2024-03-22T07:55:22;20.70;69.10
1956;DHT22;978;48.314;11.562;2024-03-22T07:57:48;20.70;69.10
1956;DHT22;978;48.314;11.562;2024-03-22T08:00:15;20.70;69.00
1956;DHT22;978;48.314;11.562;2024-03-22T08:02:41;20.70;67.10
1956;DHT22;978;48.314;11.562;2024-03-22T08:05:09;20.70;67.00
1956;DHT22;978;48.314;11.562;2024-03-22T08:07:35;20.70;67.10
1956;DHT22;978;48.314;11.562;2024-03-22T08:10:03;20.70;67.30
1956;DHT22;978;48.314;11.562;2024-03-22T08:12:30;20.70;67.50
1956;DHT22;978;48.314;11.562;2024-03-22T08:14:56;20.70;67.70
1956;DHT22;978;48.314;11.562;2024-03-22T08:17:22;20.70;68.00
1956;DHT22;978;48.314;11.562;2024-03-22T08:19:49;20.70;67.60
1956;DHT22;978;48.314;11.562;2024-03-22T08:22:15;20.70;67.70
1956;DHT22;978;48.314;11.562;2024-03-22T08:24:42;20.70;68.20
1956;DHT22;978;48.314;11.562;2024-03-22T08:27:09;20.70;68.30
1956;DHT22;978;48.314;11.562;2024-03-22T08:29:36;20.70;68.30
1956;DHT22;978;48.314;11.562;2024-03-22T08:32:03;20.70;68.30
1956;DHT22;978;48.314;11.562;2024-03-22T08:34:30;20.70;68.30
1956;DHT22;978;48.314;11.562;2024-03-22T08:36:56;20.70;67.90
1956;DHT22;978;48.314;11.562;2024-03-22T08:39:23;20.70;68.40
1956;DHT22;978;48.314;11.562;2024-03-22T08:41:50;20.70;68.40
1956;DHT22;978;48.314;11.562;2024-03-22T08:44:19;20.70;68.40
1956;DHT22;978;48.314;11.562;2024-03-22T08:46:44;20.70;68.40
1956;DHT22;978;48.314;11.562;2024-03-22T08:49:11;20.70;68.50
1956;DHT22;978;48.314;11.562;2024-03-22T08:51:38;20.70;68.50
1956;DHT22;978;48.314;11.562;2024-03-22T08:54:05;20.70;68.50
1956;DHT22;978;48.314;11.562;2024-03-22T08:56:31;20.70;68.60
1956;DHT22;978;48.314;11.562;2024-03-22T08:58:58;20.70;69.10
1956;DHT22;978;48.314;11.562;2024-03-22T09:01:26;20.70;68.60
1956;DHT22;978;48.314;11.562;2024-03-22T09:03:53;20.70;68.60
1956;DHT22;978;48.314;11.562;2024-03-22T09:06:19;20.70;68.60
1956;DHT22;978;48.314;11.562;2024-03-22T09:08:47;20.70;68.60
1956;DHT22;978;48.314;11.562;2024-03-22T09:11:13;20.70;68.60
1956;DHT22;978;48.314;11.562;2024-03-22T09:13:39;20.70;68.60
1956;DHT22;978;48.314;11.562;2024-03-22T09:16:05;20.70;68.60
1956;DHT22;978;48.314;11.562;2024-03-22T09:18:34;20.70;68.60
1956;DHT22;978;48.314;11.562;2024-03-22T09:20:59;20.70;68.60
1956;DHT22;978;48.314;11.562;2024-03-22T09:23:26;20.70;68.60
1956;DHT22;978;48.314;11.562;2024-03-22T09:25:52;20.70;68.70
1956;DHT22;978;48.314;11.562;2024-03-22T09:28:19;20.70;68.70
1956;DHT22;978;48.314;11.562;2024-03-22T09:30:45;20.70;68.20
1956;DHT22;978;48.314;11.562;2024-03-22T09:33:13;20.70;68.70
1956;DHT22;978;48.314;11.562;2024-03-22T09:35:40;20.70;68.70
1956;DHT22;978;48.314;11.562;2024-03-22T09:38:07;20.70;68.70
1956;DHT22;978;48.314;11.562;2024-03-22T09:40:34;20.70;68.70
1956;DHT22;978;48.314;11.562;2024-03-22T09:43:02;20.70;68.70
1956;DHT22;978;48.314;11.562;2024-03-22T09:45:29;20.70;68.60
1956;DHT22;978;48.314;11.562;2024-03-22T09:47:57;20.70;68.70
1956;DHT22;978;48.314;11.562;2024-03-22T09:50:23;20.70;68.70
1956;DHT22;978;48.314;11.562;2024-03-22T09:52:53;20.70;68.70
1956;DHT22;978;48.314;11.562;2024-03-22T09:55:22;20.70;68.70
1956;DHT22;978;48.314;11.562;2024-03-22T09:57:50;20.70;68.70
1956;DHT22;978;48.314;11.562;2024-03-22T10:00:17;20.80;68.80
1956;DHT22;978;48.314;11.562;2024-03-22T10:02:46;20.70;68.80
1956;DHT22;978;48.314;11.562;2024-03-22T10:05:12;20.70;68.80
1956;DHT22;978;48.314;11.562;2024-03-22T10:07:40;20.70;68.80
1956;DHT22;978;48.314;11.562;2024-03-22T10:10:07;20.70;68.80
1956;DHT22;978;48.314;11.562;2024-03-22T10:12:34;20.70;68.80
1956;DHT22;978;48.314;11.562;2024-03-22T10:15:00;20.70;68.80
1956;DHT22;978;48.314;11.562;2024-03-22T10:17:28;20.70;68.80
1956;DHT22;978;48.314;11.562;2024-03-22T10:19:55;20.70;68.30
1956;DHT22;978;48.314;11.562;2024-03-22T10:22:22;20.70;68.80
1956;DHT22;978;48.314;11.562;2024-03-22T10:24:50;20.70;68.80
1956;DHT22;978;48.314;11.562;2024-03-22T10:27:19;20.80;68.90
1956;DHT22;978;48.314;11.562;2024-03-22T10:29:45;20.80;68.90
1956;DHT22;978;48.314;11.562;2024-03-22T10:32:12;20.70;68.30
1956;DHT22;978;48.314;11.562;2024-03-22T10:34:40;20.80;68.90
1956;DHT22;978;48.314;11.562;2024-03-22T10:37:08;20.80;68.60
1956;DHT22;978;48.314;11.562;2024-03-22T10:39:37;20.80;67.90
1956;DHT22;978;48.314;11.562;2024-03-22T10:42:05;20.80;67.20
1956;DHT22;978;48.314;11.562;2024-03-22T10:44:33;20.80;66.90
1956;DHT22;978;48.314;11.562;2024-03-22T10:47:01;20.80;67.10
1956;DHT22;978;48.314;11.562;2024-03-22T10:49:30;20.70;67.50
1956;DHT22;978;48.314;11.562;2024-03-22T10:52:02;20.70;67.80
1956;DHT22;978;48.314;11.562;2024-03-22T10:54:32;20.70;67.90
1956;DHT22;978;48.314;11.562;2024-03-22T10:57:01;20.70;67.90
1956;DHT22;978;48.314;11.562;2024-03-22T10:59:27;20.80;68.00
1956;DHT22;978;48.314;11.562;2024-03-22T11:02:04;20.70;68.00
1956;DHT22;978;48.314;11.562;2024-03-22T11:04:33;20.80;68.10
1956;DHT22;978;48.314;11.562;2024-03-22T11:07:00;20.80;68.10
1956;DHT22;978;48.314;11.562;2024-03-22T11:09:28;20.70;68.10
1956;DHT22;978;48.314;11.562;2024-03-22T11:11:56;20.70;68.70
1956;DHT22;978;48.314;11.562;2024-03-22T11:14:22;20.70;67.60
1956;DHT22;978;48.314;11.562;2024-03-22T11:16:50;20.70;68.20
1956;DHT22;978;48.314;11.562;2024-03-22T11:19:17;20.70;68.20
1956;DHT22;978;48.314;11.562;2024-03-22T11:21:44;20.70;68.20
1956;DHT22;978;48.314;11.562;2024-03-22T11:24:10;20.80;68.30
1956;DHT22;978;48.314;11.562;2024-03-22T11:26:37;20.80;68.30
1956;DHT22;978;48.314;11.562;2024-03-22T11:29:03;20.70;68.30
1956;DHT22;978;48.314;11.562;2024-03-22T11:31:30;20.80;68.30
1956;DHT22;978;48.314;11.562;2024-03-22T11:33:57;20.80;68.30
1956;DHT22;978;48.314;11.562;2024-03-22T11:36:25;20.80;68.30
1956;DHT22;978;48.314;11.562;2024-03-22T11:38:51;20.80;68.40
1956;DHT22;978;48.314;11.562;2024-03-22T11:41:21;20.80;68.40
1956;DHT22;978;48.314;11.562;2024-03-22T11:43:48;20.80;68.40
1956;DHT22;978;48.314;11.562;2024-03-22T11:46:16;20.70;67.80
1956;DHT22;978;48.314;11.562;2024-03-22T11:48:43;20.80;68.40
1956;DHT22;978;48.314;11.562;2024-03-22T11:51:09;20.80;68.40
1956;DHT22;978;48.314;11.562;2024-03-22T11:53:37;20.80;67.90
1956;DHT22;978;48.314;11.562;2024-03-22T11:56:04;20.70;67.90
1956;DHT22;978;48.314;11.562;2024-03-22T11:58:30;20.70;68.40
1956;DHT22;978;48.314;11.562;2024-03-22T12:00:57;20.80;68.50
1956;DHT22;978;48.314;11.562;2024-03-22T12:03:23;20.70;68.50
1956;DHT22;978;48.314;11.562;2024-03-22T12:05:52;20.80;68.50
1956;DHT22;978;48.314;11.562;2024-03-22T12:08:19;20.80;68.50
1956;DHT22;978;48.314;11.562;2024-03-22T12:10:48;20.80;68.50
1956;DHT22;978;48.314;11.562;2024-03-22T12:15:41;20.70;67.90
1956;DHT22;978;48.314;11.562;2024-03-22T12:18:07;20.80;68.50
1956;DHT22;978;48.314;11.562;2024-03-22T12:20:33;20.80;68.50
1956;DHT22;978;48.314;11.562;2024-03-22T12:22:59;20.80;68.50
1956;DHT22;978;48.314;11.562;2024-03-22T12:25:26;20.80;68.50
1956;DHT22;978;48.314;11.562;2024-03-22T12:27:54;20.80;68.50
1956;DHT22;978;48.314;11.562;2024-03-22T12:30:22;20.80;68.60
1956;DHT22;978;48.314;11.562;2024-03-22T12:32:47;20.80;68.50
1956;DHT22;978;48.314;11.562;2024-03-22T12:35:15;20.80;68.50
1956;DHT22;978;48.314;11.562;2024-03-22T12:40:09;20.80;67.80
1956;DHT22;978;48.314;11.562;2024-03-22T12:42:35;20.80;67.80
1956;DHT22;978;48.314;11.562;2024-03-22T12:45:04;20.80;67.30
1956;DHT22;978;48.314;11.562;2024-03-22T12:47:30;20.70;67.10
1956;DHT22;978;48.314;11.562;2024-03-22T12:49:57;20.80;67.10
1956;DHT22;978;48.314;11.562;2024-03-22T12:52:23;20.80;66.90
1956;DHT22;978;48.314;11.562;2024-03-22T12:54:50;20.80;66.60
1956;DHT22;978;48.314;11.562;2024-03-22T12:57:16;20.80;65.60
1956;DHT22;978;48.314;11.562;2024-03-22T12:59:43;20.70;66.00
1956;DHT22;978;48.314;11.562;2024-03-22T13:02:12;20.80;65.90
1956;DHT22;978;48.314;11.562;2024-03-22T13:04:39;20.80;65.60
1956;DHT22;978;48.314;11.562;2024-03-22T13:07:05;19.90;65.70
1956;DHT22;978;48.314;11.562;2024-03-22T13:09:31;20.80;66.40
1956;DHT22;978;48.314;11.562;2024-03-22T13:11:57;20.80;66.60
1956;DHT22;978;48.314;11.562;2024-03-22T13:14:24;20.80;66.70
1956;DHT22;978;48.314;11.562;2024-03-22T13:16:50;20.80;66.80
1956;DHT22;978;48.314;11.562;2024-03-22T13:19:18;20.70;66.80
1956;DHT22;978;48.314;11.562;2024-03-22T13:21:44;20.80;66.90
1956;DHT22;978;48.314;11.562;2024-03-22T13:24:14;20.80;66.90
1956;DHT22;978;48.314;11.562;2024-03-22T13:26:40;20.80;67.00
1956;DHT22;978;48.314;11.562;2024-03-22T13:29:06;20.80;67.60
1956;DHT22;978;48.314;11.562;2024-03-22T13:31:33;20.80;67.10
1956;DHT22;978;48.314;11.562;2024-03-22T13:34:00;20.80;67.10
1956;DHT22;978;48.314;11.562;2024-03-22T13:36:27;20.70;67.20
1956;DHT22;978;48.314;11.562;2024-03-22T13:38:58;20.80;67.10
1956;DHT22;978;48.314;11.562;2024-03-22T13:41:24;20.80;67.10
1956;DHT22;978;48.314;11.562;2024-03-22T13:43:51;20.80;67.00
1956;DHT22;978;48.314;11.562;2024-03-22T13:46:16;20.70;66.40
1956;DHT22;978;48.314;11.562;2024-03-22T13:48:43;20.70;66.90
1956;DHT22;978;48.314;11.562;2024-03-22T13:51:10;20.80;67.00
1956;DHT22;978;48.314;11.562;2024-03-22T13:53:39;20.80;67.10
1956;DHT22;978;48.314;11.562;2024-03-22T13:56:05;20.80;66.60
1956;DHT22;978;48.314;11.562;2024-03-22T13:58:32;20.80;67.20
1956;DHT22;978;48.314;11.562;2024-03-22T14:01:00;20.80;67.20
1956;DHT22;978;48.314;11.562;2024-03-22T14:03:28;20.80;67.20
1956;DHT22;978;48.314;11.562;2024-03-22T14:05:54;20.80;66.70
1956;DHT22;978;48.314;11.562;2024-03-22T14:08:21;20.80;67.30
1956;DHT22;978;48.314;11.562;2024-03-22T14:10:48;20.80;67.30
1956;DHT22;978;48.314;11.562;2024-03-22T14:13:15;20.80;67.40
1956;DHT22;978;48.314;11.562;2024-03-22T14:15:42;20.80;67.40
1956;DHT22;978;48.314;11.562;2024-03-22T14:18:09;20.80;67.30
1956;DHT22;978;48.314;11.562;2024-03-22T14:20:35;20.80;67.30
1956;DHT22;978;48.314;11.562;2024-03-22T14:23:02;20.80;67.80
1956;DHT22;978;48.314;11.562;2024-03-22T14:25:29;20.80;67.20
1956;DHT22;978;48.314;11.562;2024-03-22T14:27:57;20.80;67.00
1956;DHT22;978;48.314;11.562;2024-03-22T14:30:23;20.80;67.00
1956;DHT22;978;48.314;11.562;2024-03-22T14:32:50;20.80;67.00
1956;DHT22;978;48.314;11.562;2024-03-22T14:35:18;20.70;67.10
1956;DHT22;978;48.314;11.562;2024-03-22T14:37:46;20.80;67.10
1956;DHT22;978;48.314;11.562;2024-03-22T14:40:12;20.80;67.00
1956;DHT22;978;48.314;11.562;2024-03-22T14:42:40;20.80;66.90
1956;DHT22;978;48.314;11.562;2024-03-22T14:45:08;20.80;66.80
1956;DHT22;978;48.314;11.562;2024-03-22T14:47:36;20.80;66.60
1956;DHT22;978;48.314;11.562;2024-03-22T14:50:01;20.80;66.60
1956;DHT22;978;48.314;11.562;2024-03-22T14:52:29;20.80;66.10
1956;DHT22;978;48.314;11.562;2024-03-22T14:54:55;20.80;66.00
1956;DHT22;978;48.314;11.562;2024-03-22T14:57:22;20.80;66.50
1956;DHT22;978;48.314;11.562;2024-03-22T14:59:48;20.80;66.40
1956;DHT22;978;48.314;11.562;2024-03-22T15:02:19;20.80;66.20
1956;DHT22;978;48.314;11.562;2024-03-22T15:04:45;20.80;66.30
1956;DHT22;978;48.314;11.562;2024-03-22T15:07:12;20.80;66.40
1956;DHT22;978;48.314;11.562;2024-03-22T15:09:38;20.80;66.40
1956;DHT22;978;48.314;11.562;2024-03-22T15:12:05;20.80;66.50
1956;DHT22;978;48.314;11.562;2024-03-22T15:14:31;20.80;66.60
1956;DHT22;978;48.314;11.562;2024-03-22T15:16:58;20.80;66.60
1956;DHT22;978;48.314;11.562;2024-03-22T15:19:26;20.80;66.60
1956;DHT22;978;48.314;11.562;2024-03-22T15:21:53;20.80;66.60
1956;DHT22;978;48.314;11.562;2024-03-22T15:24:18;20.80;66.60
1956;DHT22;978;48.314;11.562;2024-03-22T15:26:45;20.80;66.60
1956;DHT22;978;48.314;11.562;2024-03-22T15:29:11;20.80;66.60
1956;DHT22;978;48.314;11.562;2024-03-22T15:31:38;20.70;66.10
1956;DHT22;978;48.314;11.562;2024-03-22T15:34:04;20.80;66.20
1956;DHT22;978;48.314;11.562;2024-03-22T15:36:33;24.20;69.20
1956;DHT22;978;48.314;11.562;2024-03-22T15:38:59;20.80;66.70
1956;DHT22;978;48.314;11.562;2024-03-22T15:41:26;20.80;66.70
1956;DHT22;978;48.314;11.562;2024-03-22T15:43:52;20.80;66.70
1956;DHT22;978;48.314;11.562;2024-03-22T15:46:18;20.80;66.80
1956;DHT22;978;48.314;11.562;2024-03-22T15:48:45;20.80;66.80
1956;DHT22;978;48.314;11.562;2024-03-22T15:51:12;20.80;66.80
1956;DHT22;978;48.314;11.562;2024-03-22T15:53:40;20.80;66.80
1956;DHT22;978;48.314;11.562;2024-03-22T15:56:09;20.80;66.80
1956;DHT22;978;48.314;11.562;2024-03-22T15:58:36;20.80;66.90
1956;DHT22;978;48.314;11.562;2024-03-22T16:01:03;20.80;67.50
1956;DHT22;978;48.314;11.562;2024-03-22T16:03:31;20.80;66.90
1956;DHT22;978;48.314;11.562;2024-03-22T16:06:00;20.80;66.90
1956;DHT22;978;48.314;11.562;2024-03-22T16:08:27;20.80;66.90
1956;DHT22;978;48.314;11.562;2024-03-22T16:10:57;20.80;66.90